createdAt,value
2017-08-09T00:00:13.043Z,91.40
2017-08-09T00:02:41.208Z,91.20
2017-08-09T00:05:09.381Z,90.80
2017-08-09T00:07:37.563Z,90.70
2017-08-09T00:10:05.717Z,90.70
2017-08-09T00:12:33.893Z,90.60
2017-08-09T00:15:02.084Z,91.00
2017-08-09T00:17:30.256Z,90.40
2017-08-09T00:19:58.407Z,90.60
2017-08-09T00:22:26.591Z,90.60
2017-08-09T00:24:54.773Z,90.10
2017-08-09T00:27:22.946Z,89.60
2017-08-09T00:29:51.132Z,89.90
2017-08-09T00:32:19.311Z,90.40
2017-08-09T00:34:47.514Z,90.50
2017-08-09T00:37:15.698Z,90.50
2017-08-09T00:39:44.647Z,90.70
2017-08-09T00:42:12.814Z,90.70
2017-08-09T00:44:40.987Z,91.00
2017-08-09T00:47:09.147Z,91.30
2017-08-09T00:49:37.295Z,91.30
2017-08-09T00:52:06.237Z,91.40
2017-08-09T00:54:34.385Z,91.30
2017-08-09T00:57:02.534Z,91.10
2017-08-09T00:59:31.506Z,91.10
2017-08-09T01:01:59.665Z,91.00
2017-08-09T01:04:27.842Z,90.80
2017-08-09T01:06:56.032Z,90.30
2017-08-09T01:09:24.201Z,90.60
2017-08-09T01:11:52.367Z,90.10
2017-08-09T01:14:20.554Z,90.30
2017-08-09T01:16:48.724Z,89.90
2017-08-09T01:19:16.892Z,90.00
2017-08-09T01:21:45.062Z,89.90
2017-08-09T01:24:13.233Z,90.10
2017-08-09T01:26:41.390Z,90.20
2017-08-09T01:29:09.590Z,89.60
2017-08-09T01:31:37.753Z,89.60
2017-08-09T01:34:05.910Z,89.70
2017-08-09T01:36:34.098Z,89.90
2017-08-09T01:39:02.250Z,90.10
2017-08-09T01:41:30.399Z,90.20
2017-08-09T01:43:59.348Z,90.00
2017-08-09T01:46:27.502Z,89.80
2017-08-09T01:48:55.677Z,90.20
2017-08-09T01:51:23.851Z,89.90
2017-08-09T01:53:52.034Z,89.70
2017-08-09T01:56:20.210Z,89.10
2017-08-09T01:58:48.405Z,89.30
2017-08-09T02:01:16.578Z,88.80
2017-08-09T02:03:44.759Z,88.20
2017-08-09T02:06:12.961Z,89.00
2017-08-09T02:08:41.901Z,88.40
2017-08-09T02:11:10.058Z,88.40
2017-08-09T02:13:38.239Z,88.30
2017-08-09T02:16:06.390Z,88.70
2017-08-09T02:18:34.573Z,89.10
2017-08-09T02:21:02.778Z,89.50
2017-08-09T02:23:30.923Z,88.50
2017-08-09T02:25:59.104Z,88.00
2017-08-09T02:28:27.311Z,88.50
2017-08-09T02:30:55.461Z,89.00
2017-08-09T02:33:23.644Z,88.80
2017-08-09T02:35:51.832Z,89.10
2017-08-09T02:38:20.004Z,88.70
2017-08-09T02:40:48.177Z,87.50
2017-08-09T02:43:16.378Z,87.60
2017-08-09T02:45:44.529Z,87.50
2017-08-09T02:48:12.698Z,86.90
2017-08-09T02:50:40.902Z,87.30
2017-08-09T02:53:09.069Z,86.90
2017-08-09T02:55:37.226Z,86.80
2017-08-09T02:58:05.427Z,87.10
2017-08-09T03:00:33.581Z,85.20
2017-08-09T03:03:01.730Z,86.40
2017-08-09T03:05:29.909Z,85.80
2017-08-09T03:07:58.066Z,86.00
2017-08-09T03:10:26.218Z,83.00
2017-08-09T03:12:55.286Z,82.70
2017-08-09T03:15:23.451Z,82.90
2017-08-09T03:17:51.629Z,83.10
2017-08-09T03:20:19.807Z,82.50
2017-08-09T03:22:47.981Z,81.90
2017-08-09T03:25:16.130Z,81.90
2017-08-09T03:27:44.334Z,80.80
2017-08-09T03:30:12.487Z,81.10
2017-08-09T03:32:40.640Z,80.10
2017-08-09T03:35:08.844Z,80.00
2017-08-09T03:37:37.002Z,80.20
2017-08-09T03:40:05.182Z,80.60
2017-08-09T03:42:33.358Z,80.60
2017-08-09T03:45:01.532Z,80.60
2017-08-09T03:47:29.705Z,80.80
2017-08-09T03:49:57.894Z,81.10
2017-08-09T03:52:26.072Z,81.30
2017-08-09T03:54:54.244Z,81.30
2017-08-09T03:57:22.445Z,81.10
2017-08-09T03:59:51.374Z,82.10
2017-08-09T04:02:19.545Z,81.40
2017-08-09T04:04:47.728Z,80.90
2017-08-09T04:07:15.879Z,81.90
2017-08-09T04:09:44.814Z,82.40
2017-08-09T04:12:13.012Z,82.40
2017-08-09T04:14:41.182Z,81.00
2017-08-09T04:17:09.358Z,81.20
2017-08-09T04:19:37.560Z,81.30
2017-08-09T04:22:05.708Z,80.90
2017-08-09T04:24:33.866Z,81.20
2017-08-09T04:27:02.062Z,81.40
2017-08-09T04:29:30.234Z,80.80
2017-08-09T04:31:58.408Z,81.40
2017-08-09T04:34:26.632Z,81.10
2017-08-09T04:36:55.577Z,82.50
2017-08-09T04:39:23.761Z,81.70
2017-08-09T04:41:51.964Z,81.00
2017-08-09T04:44:20.111Z,81.40
2017-08-09T04:46:48.262Z,81.20
2017-08-09T04:49:16.470Z,80.70
2017-08-09T04:51:44.622Z,81.70
2017-08-09T04:54:12.797Z,82.30
2017-08-09T04:56:40.986Z,82.80
2017-08-09T04:59:09.141Z,80.80
2017-08-09T05:01:37.310Z,80.40
2017-08-09T05:04:05.513Z,79.60
2017-08-09T05:06:33.684Z,79.70
2017-08-09T05:09:01.900Z,80.80
2017-08-09T05:11:30.857Z,80.40
2017-08-09T05:13:59.006Z,80.40
2017-08-09T05:16:27.176Z,79.70
2017-08-09T05:18:55.373Z,80.30
2017-08-09T05:21:23.540Z,80.60
2017-08-09T05:23:51.695Z,80.30
2017-08-09T05:26:19.879Z,80.70
2017-08-09T05:28:48.032Z,80.70
2017-08-09T05:31:16.189Z,79.80
2017-08-09T05:33:45.148Z,79.40
2017-08-09T05:36:13.305Z,79.30
2017-08-09T05:38:41.479Z,80.30
2017-08-09T05:41:09.676Z,79.70
2017-08-09T05:43:37.852Z,78.00
2017-08-09T05:46:06.008Z,77.70
2017-08-09T05:48:34.205Z,76.70
2017-08-09T05:51:02.365Z,76.20
2017-08-09T05:53:30.521Z,76.90
2017-08-09T05:55:58.726Z,76.00
2017-08-09T05:58:26.901Z,76.50
2017-08-09T06:00:55.053Z,75.30
2017-08-09T06:03:23.232Z,75.90
2017-08-09T06:05:51.405Z,74.60
2017-08-09T06:08:19.559Z,74.40
2017-08-09T06:10:47.771Z,73.90
2017-08-09T06:13:15.951Z,73.50
2017-08-09T06:15:44.114Z,72.60
2017-08-09T06:18:12.294Z,72.10
2017-08-09T06:20:40.452Z,71.90
2017-08-09T06:23:08.626Z,71.90
2017-08-09T06:25:36.811Z,72.10
2017-08-09T06:28:04.971Z,72.10
2017-08-09T06:30:33.157Z,71.00
2017-08-09T06:33:01.339Z,69.40
2017-08-09T06:35:29.495Z,69.50
2017-08-09T06:37:57.644Z,68.40
2017-08-09T06:40:25.826Z,66.20
2017-08-09T06:42:53.981Z,67.10
2017-08-09T06:45:22.158Z,67.30
2017-08-09T06:47:50.362Z,65.70
2017-08-09T06:50:18.521Z,64.60
2017-08-09T06:52:46.671Z,64.50
2017-08-09T06:55:15.630Z,62.20
2017-08-09T06:57:43.779Z,62.20
2017-08-09T07:00:11.934Z,62.00
2017-08-09T07:02:40.130Z,61.50
2017-08-09T07:05:08.304Z,61.00
2017-08-09T07:07:36.474Z,60.50
2017-08-09T07:10:04.661Z,59.80
2017-08-09T07:12:32.826Z,61.10
2017-08-09T07:15:00.989Z,58.80
2017-08-09T07:17:29.192Z,57.90
2017-08-09T07:19:57.352Z,57.30
2017-08-09T07:22:25.533Z,57.50
2017-08-09T07:24:53.711Z,57.10
2017-08-09T07:27:21.884Z,57.40
2017-08-09T07:29:50.050Z,56.40
2017-08-09T07:32:18.242Z,55.50
2017-08-09T07:34:46.392Z,55.50
2017-08-09T07:37:14.557Z,56.20
2017-08-09T07:39:42.731Z,54.90
2017-08-09T07:42:10.902Z,54.40
2017-08-09T07:44:39.077Z,54.60
2017-08-09T07:47:07.246Z,54.40
2017-08-09T07:49:35.393Z,54.30
2017-08-09T07:52:04.314Z,53.50
2017-08-09T07:54:32.499Z,53.10
2017-08-09T07:57:00.676Z,52.40
2017-08-09T07:59:28.849Z,52.20
2017-08-09T08:01:57.034Z,52.70
2017-08-09T08:04:25.190Z,52.80
2017-08-09T08:06:53.361Z,52.40
2017-08-09T08:09:21.561Z,51.20
2017-08-09T08:11:49.710Z,50.70
2017-08-09T08:14:17.863Z,49.10
2017-08-09T08:16:46.833Z,48.10
2017-08-09T08:19:14.989Z,48.10
2017-08-09T08:21:43.142Z,46.30
2017-08-09T08:24:11.324Z,45.10
2017-08-09T08:26:39.494Z,41.90
2017-08-09T08:29:07.637Z,40.50
2017-08-09T08:31:35.835Z,38.30
2017-08-09T08:34:03.993Z,38.30
2017-08-09T08:36:32.159Z,38.50
2017-08-09T08:39:00.378Z,37.30
2017-08-09T08:41:28.531Z,37.90
2017-08-09T08:43:56.690Z,38.50
2017-08-09T08:46:24.881Z,36.30
2017-08-09T08:48:53.035Z,35.70
2017-08-09T08:51:21.216Z,34.80
2017-08-09T08:53:49.402Z,35.10
2017-08-09T08:56:17.562Z,33.60
2017-08-09T08:58:45.718Z,33.10
2017-08-09T09:01:13.930Z,34.40
2017-08-09T09:03:42.102Z,33.80
2017-08-09T09:06:10.281Z,33.10
2017-08-09T09:08:38.454Z,31.90
2017-08-09T09:11:06.607Z,33.30
2017-08-09T09:13:34.783Z,34.00
2017-08-09T09:16:02.990Z,32.90
2017-08-09T09:18:31.144Z,31.50
2017-08-09T09:20:59.307Z,29.70
2017-08-09T09:23:27.506Z,27.80
2017-08-09T09:25:55.677Z,28.90
2017-08-09T09:28:23.844Z,29.50
2017-08-09T09:30:52.046Z,29.30
2017-08-09T09:33:20.226Z,31.00
2017-08-09T09:35:48.385Z,35.00
2017-08-09T09:38:16.567Z,39.30
2017-08-09T09:40:44.718Z,41.30
2017-08-09T09:43:12.896Z,42.00
2017-08-09T09:45:41.105Z,41.70
2017-08-09T09:48:09.290Z,41.10
2017-08-09T09:50:37.447Z,41.40
2017-08-09T09:53:05.642Z,40.60
2017-08-09T09:55:33.826Z,40.50
2017-08-09T09:58:02.761Z,42.90
2017-08-09T10:00:30.955Z,42.90
2017-08-09T10:02:59.148Z,43.80
2017-08-09T10:05:27.339Z,44.20
2017-08-09T10:07:55.549Z,44.90
2017-08-09T10:10:23.703Z,45.20
2017-08-09T10:12:52.690Z,44.60
2017-08-09T10:15:20.871Z,44.60
2017-08-09T10:17:49.791Z,44.90
2017-08-09T10:20:17.951Z,44.90
2017-08-09T10:22:46.139Z,43.80
2017-08-09T10:25:14.299Z,42.30
2017-08-09T10:27:42.461Z,43.40
2017-08-09T10:30:11.432Z,44.20
2017-08-09T10:32:39.604Z,44.20
2017-08-09T10:35:07.781Z,44.90
2017-08-09T10:37:36.260Z,46.30
2017-08-09T10:40:04.436Z,45.80
2017-08-09T10:42:32.612Z,46.50
2017-08-09T10:45:00.798Z,46.00
2017-08-09T10:47:28.973Z,46.40
2017-08-09T10:49:57.135Z,47.30
2017-08-09T10:52:25.323Z,47.50
2017-08-09T10:54:53.499Z,48.20
2017-08-09T10:57:21.651Z,49.20
2017-08-09T10:59:49.856Z,47.60
2017-08-09T11:02:19.410Z,47.10
2017-08-09T11:04:47.571Z,47.10
2017-08-09T11:07:15.764Z,48.10
2017-08-09T11:09:43.942Z,45.10
2017-08-09T11:12:12.118Z,42.20
2017-08-09T11:14:40.307Z,42.80
2017-08-09T11:17:08.479Z,44.00
2017-08-09T11:19:36.653Z,44.90
2017-08-09T11:22:04.863Z,45.60
2017-08-09T11:24:33.808Z,46.90
2017-08-09T11:27:01.984Z,46.80
2017-08-09T11:29:30.203Z,47.20
2017-08-09T11:31:59.127Z,49.30
2017-08-09T11:34:27.325Z,49.20
2017-08-09T11:36:55.520Z,50.30
2017-08-09T11:39:23.697Z,49.30
2017-08-09T11:41:51.869Z,49.50
2017-08-09T11:44:20.076Z,50.00
2017-08-09T11:46:48.237Z,49.90
2017-08-09T11:49:17.181Z,41.90
2017-08-09T11:51:45.392Z,41.90
2017-08-09T11:54:13.577Z,40.70
2017-08-09T11:56:41.730Z,40.80
2017-08-09T11:59:09.910Z,40.50
2017-08-09T12:01:38.069Z,39.80
2017-08-09T12:04:06.226Z,39.90
2017-08-09T12:06:34.426Z,41.40
2017-08-09T12:09:02.601Z,42.10
2017-08-09T12:11:30.782Z,43.90
2017-08-09T12:13:58.972Z,43.20
2017-08-09T12:16:27.135Z,44.50
2017-08-09T12:18:55.312Z,44.60
2017-08-09T12:21:23.521Z,43.10
2017-08-09T12:23:51.683Z,44.20
2017-08-09T12:26:20.631Z,45.60
2017-08-09T12:28:48.811Z,45.60
2017-08-09T12:31:16.976Z,46.00
2017-08-09T12:33:45.136Z,46.40
2017-08-09T12:36:13.322Z,44.80
2017-08-09T12:38:41.501Z,43.70
2017-08-09T12:41:09.678Z,43.70
2017-08-09T12:43:37.882Z,43.70
2017-08-09T12:46:06.062Z,43.50
2017-08-09T12:48:35.009Z,43.80
2017-08-09T12:51:03.199Z,43.60
2017-08-09T12:53:31.360Z,43.60
2017-08-09T12:55:59.539Z,44.50
2017-08-09T12:58:27.746Z,43.80
2017-08-09T13:00:55.920Z,43.30
2017-08-09T13:03:24.088Z,42.50
2017-08-09T13:05:52.271Z,43.70
2017-08-09T13:08:21.243Z,43.90
2017-08-09T13:10:49.407Z,43.10
2017-08-09T13:13:17.595Z,43.10
2017-08-09T13:15:45.755Z,42.20
2017-08-09T13:18:13.926Z,42.80
2017-08-09T13:20:42.119Z,43.60
2017-08-09T13:23:10.280Z,45.10
2017-08-09T13:25:38.455Z,45.40
2017-08-09T13:28:06.646Z,46.40
2017-08-09T13:30:35.002Z,46.20
2017-08-09T13:33:03.180Z,45.80
2017-08-09T13:35:31.385Z,45.70
2017-08-09T13:37:59.565Z,46.40
2017-08-09T13:40:27.746Z,45.40
2017-08-09T13:42:55.934Z,46.00
2017-08-09T13:45:24.855Z,45.10
2017-08-09T13:47:53.006Z,45.10
2017-08-09T13:50:21.973Z,43.60
2017-08-09T13:52:50.145Z,43.60
2017-08-09T13:55:18.328Z,44.10
2017-08-09T13:57:46.525Z,43.90
2017-08-09T14:00:15.460Z,45.50
2017-08-09T14:02:43.615Z,45.40
2017-08-09T14:05:11.792Z,45.80
2017-08-09T14:07:39.940Z,44.90
2017-08-09T14:10:08.878Z,43.50
2017-08-09T14:12:37.076Z,43.50
2017-08-09T14:15:05.242Z,43.30
2017-08-09T14:17:33.387Z,44.20
2017-08-09T14:20:01.581Z,44.00
2017-08-09T14:22:29.764Z,42.60
2017-08-09T14:24:57.930Z,43.40
2017-08-09T14:27:26.131Z,44.00
2017-08-09T14:29:54.283Z,44.40
2017-08-09T14:32:22.459Z,43.40
2017-08-09T14:34:50.644Z,43.30
2017-08-09T14:37:18.809Z,44.50
2017-08-09T14:39:46.961Z,43.90
2017-08-09T14:42:15.150Z,43.70
2017-08-09T14:44:43.318Z,44.60
2017-08-09T14:47:11.479Z,44.20
2017-08-09T14:49:39.658Z,44.90
2017-08-09T14:52:07.826Z,45.60
2017-08-09T14:54:35.973Z,45.90
2017-08-09T14:57:04.911Z,45.10
2017-08-09T14:59:33.093Z,45.10
2017-08-09T15:02:01.238Z,43.90
2017-08-09T15:04:29.445Z,43.10
2017-08-09T15:06:57.609Z,43.40
2017-08-09T15:09:25.773Z,43.40
2017-08-09T15:11:53.962Z,42.80
2017-08-09T15:14:22.126Z,43.40
2017-08-09T15:16:50.305Z,42.50
2017-08-09T15:19:18.512Z,42.00
2017-08-09T15:21:46.697Z,42.90
2017-08-09T15:24:14.872Z,41.00
2017-08-09T15:26:43.073Z,42.60
2017-08-09T15:29:11.242Z,43.00
2017-08-09T15:31:40.154Z,43.90
2017-08-09T15:34:08.328Z,43.80
2017-08-09T15:36:36.474Z,43.50
2017-08-09T15:39:05.410Z,43.30
2017-08-09T15:41:33.593Z,43.20
2017-08-09T15:44:01.738Z,43.90
2017-08-09T15:46:29.907Z,43.40
2017-08-09T15:48:58.083Z,43.30
2017-08-09T15:51:26.246Z,43.30
2017-08-09T15:53:55.177Z,43.10
2017-08-09T15:56:23.357Z,42.90
2017-08-09T15:58:51.519Z,42.50
2017-08-09T16:01:19.690Z,41.90
2017-08-09T16:03:47.881Z,42.20
2017-08-09T16:06:16.049Z,42.90
2017-08-09T16:08:44.202Z,42.20
2017-08-09T16:11:12.382Z,42.60
2017-08-09T16:13:40.544Z,43.00
2017-08-09T16:16:08.710Z,42.90
2017-08-09T16:18:37.670Z,43.90
2017-08-09T16:21:05.821Z,43.90
2017-08-09T16:23:33.973Z,43.80
2017-08-09T16:26:02.147Z,43.70
2017-08-09T16:28:30.309Z,44.10
2017-08-09T16:30:58.484Z,43.30
2017-08-09T16:33:26.676Z,43.40
2017-08-09T16:35:54.885Z,43.20
2017-08-09T16:38:23.035Z,43.10
2017-08-09T16:40:51.219Z,43.20
2017-08-09T16:43:19.372Z,43.40
2017-08-09T16:45:47.546Z,43.20
2017-08-09T16:48:15.737Z,43.70
2017-08-09T16:50:43.909Z,43.60
2017-08-09T16:53:12.064Z,44.10
2017-08-09T16:55:40.238Z,44.50
2017-08-09T16:58:08.407Z,44.20
2017-08-09T17:00:36.555Z,44.10
2017-08-09T17:03:05.529Z,44.50
2017-08-09T17:05:33.683Z,44.50
2017-08-09T17:08:01.834Z,44.20
2017-08-09T17:10:30.034Z,45.00
2017-08-09T17:12:58.203Z,44.50
2017-08-09T17:15:26.377Z,44.90
2017-08-09T17:17:54.560Z,45.30
2017-08-09T17:20:22.737Z,45.70
2017-08-09T17:22:50.882Z,45.20
2017-08-09T17:25:19.073Z,44.50
2017-08-09T17:27:47.238Z,44.80
2017-08-09T17:30:15.396Z,44.80
2017-08-09T17:32:43.570Z,45.10
2017-08-09T17:35:11.741Z,44.90
2017-08-09T17:37:39.893Z,45.00
2017-08-09T17:40:08.836Z,44.80
2017-08-09T17:42:36.991Z,44.70
2017-08-09T17:45:05.163Z,44.00
2017-08-09T17:47:33.346Z,44.10
2017-08-09T17:50:01.502Z,44.10
2017-08-09T17:52:29.643Z,44.70
2017-08-09T17:54:57.814Z,44.40
2017-08-09T17:57:25.966Z,44.90
2017-08-09T17:59:54.129Z,45.10
2017-08-09T18:02:22.329Z,45.00
2017-08-09T18:04:50.493Z,45.00
2017-08-09T18:07:18.643Z,45.50
2017-08-09T18:09:46.825Z,45.40
2017-08-09T18:12:14.990Z,45.10
2017-08-09T18:14:43.132Z,45.20
2017-08-09T18:17:12.070Z,45.90
2017-08-09T18:19:40.218Z,45.90
2017-08-09T18:22:08.372Z,45.70
2017-08-09T18:24:37.343Z,45.90
2017-08-09T18:27:05.513Z,45.90
2017-08-09T18:29:33.689Z,46.30
2017-08-09T18:32:01.888Z,46.40
2017-08-09T18:34:30.828Z,46.40
2017-08-09T18:36:58.993Z,46.30
2017-08-09T18:39:27.172Z,46.10
2017-08-09T18:41:55.337Z,46.20
2017-08-09T18:44:23.498Z,46.50
2017-08-09T18:46:51.675Z,46.60
2017-08-09T18:49:19.840Z,46.70
2017-08-09T18:51:47.999Z,47.10
2017-08-09T18:54:16.943Z,47.70
2017-08-09T18:56:45.111Z,47.10
2017-08-09T18:59:13.283Z,47.30
2017-08-09T19:01:41.460Z,47.90
2017-08-09T19:04:09.623Z,47.30
2017-08-09T19:06:37.793Z,47.60
2017-08-09T19:09:05.990Z,47.80
2017-08-09T19:11:34.153Z,48.00
2017-08-09T19:14:02.305Z,48.40
2017-08-09T19:16:30.491Z,48.70
2017-08-09T19:18:58.661Z,49.00
2017-08-09T19:21:26.823Z,49.30
2017-08-09T19:23:55.015Z,49.60
2017-08-09T19:26:23.181Z,49.60
2017-08-09T19:28:51.330Z,49.90
2017-08-09T19:31:20.279Z,50.40
2017-08-09T19:33:48.426Z,50.40
2017-08-09T19:36:16.585Z,50.80
2017-08-09T19:38:45.535Z,51.20
2017-08-09T19:41:13.704Z,51.20
2017-08-09T19:43:41.880Z,51.40
2017-08-09T19:46:10.062Z,51.90
2017-08-09T19:48:38.219Z,51.90
2017-08-09T19:51:06.386Z,52.20
2017-08-09T19:53:34.575Z,52.30
2017-08-09T19:56:02.753Z,53.20
2017-08-09T19:58:30.910Z,52.90
2017-08-09T20:00:59.100Z,53.10
2017-08-09T20:03:27.270Z,53.30
2017-08-09T20:05:55.427Z,53.50
2017-08-09T20:08:23.637Z,53.60
2017-08-09T20:10:51.788Z,53.80
2017-08-09T20:13:19.967Z,54.00
2017-08-09T20:15:48.150Z,54.30
2017-08-09T20:18:16.311Z,54.70
2017-08-09T20:20:44.490Z,54.80
2017-08-09T20:23:12.670Z,55.10
2017-08-09T20:25:40.826Z,55.30
2017-08-09T20:28:08.978Z,55.50
2017-08-09T20:30:37.178Z,55.60
2017-08-09T20:33:05.350Z,55.90
2017-08-09T20:35:33.530Z,56.00
2017-08-09T20:38:01.718Z,56.00
2017-08-09T20:40:29.894Z,56.10
2017-08-09T20:42:58.043Z,56.40
2017-08-09T20:45:26.241Z,55.40
2017-08-09T20:47:54.391Z,55.90
2017-08-09T20:50:22.574Z,55.80
2017-08-09T20:52:50.773Z,56.00
2017-08-09T20:55:18.954Z,56.20
2017-08-09T20:57:47.125Z,56.20
2017-08-09T21:00:15.325Z,56.20
2017-08-09T21:02:44.247Z,57.40
2017-08-09T21:05:12.420Z,57.10
2017-08-09T21:07:40.623Z,57.40
2017-08-09T21:10:08.790Z,57.40
2017-08-09T21:12:36.963Z,57.70
2017-08-09T21:15:05.143Z,58.00
2017-08-09T21:17:33.300Z,58.30
2017-08-09T21:20:01.441Z,58.40
2017-08-09T21:22:30.398Z,58.80
2017-08-09T21:24:58.577Z,58.80
2017-08-09T21:27:26.727Z,59.30
2017-08-09T21:29:54.912Z,59.20
2017-08-09T21:32:23.083Z,59.50
2017-08-09T21:34:51.255Z,59.80
2017-08-09T21:37:19.453Z,59.90
2017-08-09T21:39:47.624Z,60.20
2017-08-09T21:42:15.794Z,60.10
2017-08-09T21:44:43.986Z,60.10
2017-08-09T21:47:12.163Z,60.30
2017-08-09T21:49:40.337Z,60.40
2017-08-09T21:52:08.516Z,60.80
2017-08-09T21:54:36.693Z,61.10
2017-08-09T21:57:04.875Z,61.50
2017-08-09T21:59:33.853Z,61.70
2017-08-09T22:02:02.011Z,61.80
2017-08-09T22:04:30.189Z,61.90
2017-08-09T22:06:58.401Z,62.50
2017-08-09T22:09:27.319Z,63.10
2017-08-09T22:11:55.468Z,63.10
2017-08-09T22:14:24.419Z,64.20
2017-08-09T22:16:52.597Z,64.10
2017-08-09T22:19:20.768Z,64.20
2017-08-09T22:21:48.975Z,64.80
2017-08-09T22:24:17.147Z,65.10
2017-08-09T22:26:45.321Z,65.60
2017-08-09T22:29:13.507Z,65.80
2017-08-09T22:31:42.447Z,65.80
2017-08-09T22:34:10.612Z,65.70
2017-08-09T22:36:38.811Z,66.00
2017-08-09T22:39:06.965Z,66.40
2017-08-09T22:41:35.118Z,66.70
2017-08-09T22:44:03.307Z,67.20
2017-08-09T22:46:31.464Z,67.20
2017-08-09T22:48:59.629Z,67.50
2017-08-09T22:51:28.577Z,67.70
2017-08-09T22:53:56.754Z,67.60
2017-08-09T22:56:24.923Z,67.70
2017-08-09T22:58:53.130Z,68.20
2017-08-09T23:01:22.075Z,68.80
2017-08-09T23:03:50.229Z,68.70
2017-08-09T23:06:18.428Z,68.70
2017-08-09T23:08:46.605Z,68.60
2017-08-09T23:11:14.758Z,68.80
2017-08-09T23:13:42.965Z,68.40
2017-08-09T23:16:11.138Z,68.70
2017-08-09T23:18:39.317Z,68.70
2017-08-09T23:21:07.498Z,69.00
2017-08-09T23:23:35.654Z,68.60
2017-08-09T23:26:03.815Z,68.80
2017-08-09T23:28:32.043Z,68.60
2017-08-09T23:31:00.221Z,68.80
2017-08-09T23:33:29.161Z,68.50
2017-08-09T23:35:57.343Z,69.20
2017-08-09T23:38:25.512Z,69.20
2017-08-09T23:40:53.670Z,69.00
2017-08-09T23:43:21.880Z,69.40
2017-08-09T23:45:50.056Z,69.10
2017-08-09T23:48:18.221Z,70.30
2017-08-09T23:50:46.417Z,69.60
2017-08-09T23:53:14.593Z,69.40
2017-08-09T23:55:42.742Z,70.00
2017-08-09T23:58:10.938Z,70.30
